sensor_id;sensor_type;location;lat;lon;timestamp;temperature;humidity
10472;DHT22;5283;48.876;8.962;2023-02-04T00:00:15;6.90;99.90
10472;DHT22;5283;48.876;8.962;2023-02-04T00:02:42;6.90;99.90
10472;DHT22;5283;48.876;8.962;2023-02-04T00:05:09;6.90;99.90
10472;DHT22;5283;48.876;8.962;2023-02-04T00:07:37;7.00;99.90
10472;DHT22;5283;48.876;8.962;2023-02-04T00:10:06;7.00;99.90
10472;DHT22;5283;48.876;8.962;2023-02-04T00:12:33;7.00;99.90
10472;DHT22;5283;48.876;8.962;2023-02-04T00:15:00;7.00;99.90
10472;DHT22;5283;48.876;8.962;2023-02-04T00:17:27;7.00;99.90
10472;DHT22;5283;48.876;8.962;2023-02-04T00:19:53;7.00;99.90
10472;DHT22;5283;48.876;8.962;2023-02-04T00:22:20;7.10;99.90
10472;DHT22;5283;48.876;8.962;2023-02-04T00:24:47;7.10;99.90
10472;DHT22;5283;48.876;8.962;2023-02-04T00:27:15;7.10;99.90
10472;DHT22;5283;48.876;8.962;2023-02-04T00:29:42;7.10;99.90
10472;DHT22;5283;48.876;8.962;2023-02-04T00:32:09;7.20;99.90
10472;DHT22;5283;48.876;8.962;2023-02-04T00:34:36;7.10;99.90
10472;DHT22;5283;48.876;8.962;2023-02-04T00:37:02;7.10;99.90
10472;DHT22;5283;48.876;8.962;2023-02-04T00:39:29;7.10;99.90
10472;DHT22;5283;48.876;8.962;2023-02-04T00:41:56;7.10;99.90
10472;DHT22;5283;48.876;8.962;2023-02-04T00:44:22;7.10;99.90
10472;DHT22;5283;48.876;8.962;2023-02-04T00:46:49;7.10;99.90
10472;DHT22;5283;48.876;8.962;2023-02-04T00:49:16;7.10;99.90
10472;DHT22;5283;48.876;8.962;2023-02-04T00:51:42;7.00;99.90
10472;DHT22;5283;48.876;8.962;2023-02-04T00:54:12;7.00;99.90
10472;DHT22;5283;48.876;8.962;2023-02-04T00:56:40;7.10;99.90
10472;DHT22;5283;48.876;8.962;2023-02-04T00:59:06;7.10;99.90
10472;DHT22;5283;48.876;8.962;2023-02-04T01:01:34;7.10;99.90
10472;DHT22;5283;48.876;8.962;2023-02-04T01:04:01;7.30;99.90
10472;DHT22;5283;48.876;8.962;2023-02-04T01:06:27;7.30;99.90
10472;DHT22;5283;48.876;8.962;2023-02-04T01:08:54;7.40;99.90
10472;DHT22;5283;48.876;8.962;2023-02-04T01:11:20;7.30;99.90
10472;DHT22;5283;48.876;8.962;2023-02-04T01:13:47;7.30;99.90
10472;DHT22;5283;48.876;8.962;2023-02-04T01:16:14;7.30;99.90
10472;DHT22;5283;48.876;8.962;2023-02-04T01:18:40;7.20;99.90
10472;DHT22;5283;48.876;8.962;2023-02-04T01:21:07;7.10;99.90
10472;DHT22;5283;48.876;8.962;2023-02-04T01:23:34;7.10;99.90
10472;DHT22;5283;48.876;8.962;2023-02-04T01:26:01;7.10;99.90
10472;DHT22;5283;48.876;8.962;2023-02-04T01:28:28;7.00;99.90
10472;DHT22;5283;48.876;8.962;2023-02-04T01:30:54;6.90;99.90
10472;DHT22;5283;48.876;8.962;2023-02-04T01:33:21;6.90;99.90
10472;DHT22;5283;48.876;8.962;2023-02-04T01:35:48;6.80;99.90
10472;DHT22;5283;48.876;8.962;2023-02-04T01:38:15;6.80;99.90
10472;DHT22;5283;48.876;8.962;2023-02-04T01:40:42;6.80;99.90
10472;DHT22;5283;48.876;8.962;2023-02-04T01:43:09;6.70;99.90
10472;DHT22;5283;48.876;8.962;2023-02-04T01:45:37;6.70;99.90
10472;DHT22;5283;48.876;8.962;2023-02-04T01:48:04;6.60;99.90
10472;DHT22;5283;48.876;8.962;2023-02-04T01:50:31;6.50;99.90
10472;DHT22;5283;48.876;8.962;2023-02-04T01:52:59;6.50;99.90
10472;DHT22;5283;48.876;8.962;2023-02-04T01:55:28;6.40;99.90
10472;DHT22;5283;48.876;8.962;2023-02-04T01:57:55;6.30;99.90
10472;DHT22;5283;48.876;8.962;2023-02-04T02:00:30;6.30;99.90
10472;DHT22;5283;48.876;8.962;2023-02-04T02:02:58;6.20;99.90
10472;DHT22;5283;48.876;8.962;2023-02-04T02:05:46;6.20;99.90
10472;DHT22;5283;48.876;8.962;2023-02-04T02:08:15;6.20;99.90
10472;DHT22;5283;48.876;8.962;2023-02-04T02:10:44;6.20;99.90
10472;DHT22;5283;48.876;8.962;2023-02-04T02:13:15;6.20;99.90
10472;DHT22;5283;48.876;8.962;2023-02-04T02:15:42;6.20;99.90
10472;DHT22;5283;48.876;8.962;2023-02-04T02:18:10;6.20;99.90
10472;DHT22;5283;48.876;8.962;2023-02-04T02:20:37;6.20;99.90
10472;DHT22;5283;48.876;8.962;2023-02-04T02:23:41;6.20;99.90
10472;DHT22;5283;48.876;8.962;2023-02-04T02:26:10;6.20;99.90
10472;DHT22;5283;48.876;8.962;2023-02-04T02:28:37;6.20;99.90
10472;DHT22;5283;48.876;8.962;2023-02-04T02:31:03;6.20;99.90
10472;DHT22;5283;48.876;8.962;2023-02-04T02:33:30;6.10;99.90
10472;DHT22;5283;48.876;8.962;2023-02-04T02:35:57;6.10;99.90
10472;DHT22;5283;48.876;8.962;2023-02-04T02:38:24;6.10;99.90
10472;DHT22;5283;48.876;8.962;2023-02-04T02:40:51;6.10;99.90
10472;DHT22;5283;48.876;8.962;2023-02-04T02:43:20;6.10;99.90
10472;DHT22;5283;48.876;8.962;2023-02-04T02:45:49;6.00;99.90
10472;DHT22;5283;48.876;8.962;2023-02-04T02:48:16;6.10;99.90
10472;DHT22;5283;48.876;8.962;2023-02-04T02:50:44;6.10;99.90
10472;DHT22;5283;48.876;8.962;2023-02-04T02:53:12;6.10;99.90
10472;DHT22;5283;48.876;8.962;2023-02-04T02:55:39;6.10;99.90
10472;DHT22;5283;48.876;8.962;2023-02-04T02:58:27;6.10;99.90
10472;DHT22;5283;48.876;8.962;2023-02-04T03:00:55;6.00;99.90
10472;DHT22;5283;48.876;8.962;2023-02-04T03:03:26;6.00;99.90
10472;DHT22;5283;48.876;8.962;2023-02-04T03:06:06;6.00;99.90
10472;DHT22;5283;48.876;8.962;2023-02-04T03:08:34;6.00;99.90
10472;DHT22;5283;48.876;8.962;2023-02-04T03:11:02;5.90;99.90
10472;DHT22;5283;48.876;8.962;2023-02-04T03:13:29;5.90;99.90
10472;DHT22;5283;48.876;8.962;2023-02-04T03:15:56;5.90;99.90
10472;DHT22;5283;48.876;8.962;2023-02-04T03:18:23;5.80;99.90
10472;DHT22;5283;48.876;8.962;2023-02-04T03:20:50;5.80;99.90
10472;DHT22;5283;48.876;8.962;2023-02-04T03:23:18;5.80;99.90
10472;DHT22;5283;48.876;8.962;2023-02-04T03:25:45;5.80;99.90
10472;DHT22;5283;48.876;8.962;2023-02-04T03:28:12;5.80;99.90
10472;DHT22;5283;48.876;8.962;2023-02-04T03:30:38;5.90;99.90
10472;DHT22;5283;48.876;8.962;2023-02-04T03:33:05;5.90;99.90
10472;DHT22;5283;48.876;8.962;2023-02-04T03:35:32;5.90;99.90
10472;DHT22;5283;48.876;8.962;2023-02-04T03:37:59;5.90;99.90
10472;DHT22;5283;48.876;8.962;2023-02-04T03:40:25;5.80;99.90
10472;DHT22;5283;48.876;8.962;2023-02-04T03:42:52;5.80;99.90
10472;DHT22;5283;48.876;8.962;2023-02-04T03:45:19;5.80;99.90
10472;DHT22;5283;48.876;8.962;2023-02-04T03:47:45;5.80;99.90
10472;DHT22;5283;48.876;8.962;2023-02-04T03:50:12;5.80;99.90
10472;DHT22;5283;48.876;8.962;2023-02-04T03:52:39;5.80;99.90
10472;DHT22;5283;48.876;8.962;2023-02-04T03:55:06;5.80;99.90
10472;DHT22;5283;48.876;8.962;2023-02-04T03:57:33;5.80;99.90
10472;DHT22;5283;48.876;8.962;2023-02-04T03:59:59;5.80;99.90
10472;DHT22;5283;48.876;8.962;2023-02-04T04:02:26;5.80;99.90
10472;DHT22;5283;48.876;8.962;2023-02-04T04:04:53;5.80;99.90
10472;DHT22;5283;48.876;8.962;2023-02-04T04:07:19;5.80;99.90
10472;DHT22;5283;48.876;8.962;2023-02-04T04:09:46;5.80;99.90
10472;DHT22;5283;48.876;8.962;2023-02-04T04:12:13;5.80;99.90
10472;DHT22;5283;48.876;8.962;2023-02-04T04:14:39;5.80;99.90
10472;DHT22;5283;48.876;8.962;2023-02-04T04:17:06;5.80;99.90
10472;DHT22;5283;48.876;8.962;2023-02-04T04:19:33;5.80;99.90
10472;DHT22;5283;48.876;8.962;2023-02-04T04:21:59;5.80;99.90
10472;DHT22;5283;48.876;8.962;2023-02-04T04:24:26;5.80;99.90
10472;DHT22;5283;48.876;8.962;2023-02-04T04:26:53;5.80;99.90
10472;DHT22;5283;48.876;8.962;2023-02-04T04:29:20;5.80;99.90
10472;DHT22;5283;48.876;8.962;2023-02-04T04:31:46;5.70;99.90
10472;DHT22;5283;48.876;8.962;2023-02-04T04:34:13;5.70;99.90
10472;DHT22;5283;48.876;8.962;2023-02-04T04:36:40;5.70;99.90
10472;DHT22;5283;48.876;8.962;2023-02-04T04:39:06;5.70;99.90
10472;DHT22;5283;48.876;8.962;2023-02-04T04:41:33;5.60;99.90
10472;DHT22;5283;48.876;8.962;2023-02-04T04:44:00;5.60;99.90
10472;DHT22;5283;48.876;8.962;2023-02-04T04:46:26;5.60;99.90
10472;DHT22;5283;48.876;8.962;2023-02-04T04:48:53;5.60;99.90
10472;DHT22;5283;48.876;8.962;2023-02-04T04:51:20;5.50;99.90
10472;DHT22;5283;48.876;8.962;2023-02-04T04:53:46;5.60;99.90
10472;DHT22;5283;48.876;8.962;2023-02-04T04:56:13;5.50;99.90
10472;DHT22;5283;48.876;8.962;2023-02-04T04:58:40;5.50;99.90
10472;DHT22;5283;48.876;8.962;2023-02-04T05:01:06;5.50;99.90
10472;DHT22;5283;48.876;8.962;2023-02-04T05:03:33;5.50;99.90
10472;DHT22;5283;48.876;8.962;2023-02-04T05:06:00;5.50;99.90
10472;DHT22;5283;48.876;8.962;2023-02-04T05:08:26;5.50;99.90
10472;DHT22;5283;48.876;8.962;2023-02-04T05:10:53;5.50;99.90
10472;DHT22;5283;48.876;8.962;2023-02-04T05:13:20;5.40;99.90
10472;DHT22;5283;48.876;8.962;2023-02-04T05:15:47;5.40;99.90
10472;DHT22;5283;48.876;8.962;2023-02-04T05:18:13;5.40;99.90
10472;DHT22;5283;48.876;8.962;2023-02-04T05:20:40;5.40;99.90
10472;DHT22;5283;48.876;8.962;2023-02-04T05:23:07;5.40;99.90
10472;DHT22;5283;48.876;8.962;2023-02-04T05:25:33;5.40;99.90
10472;DHT22;5283;48.876;8.962;2023-02-04T05:28:00;5.40;99.90
10472;DHT22;5283;48.876;8.962;2023-02-04T05:30:27;5.40;99.90
10472;DHT22;5283;48.876;8.962;2023-02-04T05:32:53;5.40;99.90
10472;DHT22;5283;48.876;8.962;2023-02-04T05:35:20;5.40;99.90
10472;DHT22;5283;48.876;8.962;2023-02-04T05:37:47;5.40;99.90
10472;DHT22;5283;48.876;8.962;2023-02-04T05:40:13;5.40;99.90
10472;DHT22;5283;48.876;8.962;2023-02-04T05:42:40;5.50;99.90
10472;DHT22;5283;48.876;8.962;2023-02-04T05:45:16;5.50;99.90
10472;DHT22;5283;48.876;8.962;2023-02-04T05:47:44;5.50;99.90
10472;DHT22;5283;48.876;8.962;2023-02-04T05:50:11;5.50;99.90
10472;DHT22;5283;48.876;8.962;2023-02-04T05:52:37;5.50;99.90
10472;DHT22;5283;48.876;8.962;2023-02-04T05:55:06;5.50;99.90
10472;DHT22;5283;48.876;8.962;2023-02-04T05:57:33;5.50;99.90
10472;DHT22;5283;48.876;8.962;2023-02-04T05:59:59;5.50;99.90
10472;DHT22;5283;48.876;8.962;2023-02-04T06:02:26;5.50;99.90
10472;DHT22;5283;48.876;8.962;2023-02-04T06:04:53;5.40;99.90
10472;DHT22;5283;48.876;8.962;2023-02-04T06:07:19;5.40;99.90
10472;DHT22;5283;48.876;8.962;2023-02-04T06:09:46;5.40;99.90
10472;DHT22;5283;48.876;8.962;2023-02-04T06:12:13;5.40;99.90
10472;DHT22;5283;48.876;8.962;2023-02-04T06:14:39;5.30;99.90
10472;DHT22;5283;48.876;8.962;2023-02-04T06:17:06;5.30;99.90
10472;DHT22;5283;48.876;8.962;2023-02-04T06:19:33;5.30;99.90
10472;DHT22;5283;48.876;8.962;2023-02-04T06:21:59;5.30;99.90
10472;DHT22;5283;48.876;8.962;2023-02-04T06:24:26;5.30;99.90
10472;DHT22;5283;48.876;8.962;2023-02-04T06:26:53;5.30;99.90
10472;DHT22;5283;48.876;8.962;2023-02-04T06:29:19;5.20;99.90
10472;DHT22;5283;48.876;8.962;2023-02-04T06:31:46;5.20;99.90
10472;DHT22;5283;48.876;8.962;2023-02-04T06:34:15;5.20;99.90
10472;DHT22;5283;48.876;8.962;2023-02-04T06:36:41;5.10;99.90
10472;DHT22;5283;48.876;8.962;2023-02-04T06:39:08;5.10;99.90
10472;DHT22;5283;48.876;8.962;2023-02-04T06:41:35;5.10;99.90
10472;DHT22;5283;48.876;8.962;2023-02-04T06:44:01;5.20;99.90
10472;DHT22;5283;48.876;8.962;2023-02-04T06:46:28;5.20;99.90
10472;DHT22;5283;48.876;8.962;2023-02-04T06:48:55;5.20;99.90
10472;DHT22;5283;48.876;8.962;2023-02-04T06:51:22;5.10;99.90
10472;DHT22;5283;48.876;8.962;2023-02-04T06:53:49;5.20;99.90
10472;DHT22;5283;48.876;8.962;2023-02-04T06:56:15;5.20;99.90
10472;DHT22;5283;48.876;8.962;2023-02-04T06:58:42;5.20;99.90
10472;DHT22;5283;48.876;8.962;2023-02-04T07:01:09;5.20;99.90
10472;DHT22;5283;48.876;8.962;2023-02-04T07:03:35;5.20;99.90
10472;DHT22;5283;48.876;8.962;2023-02-04T07:06:02;5.20;99.90
10472;DHT22;5283;48.876;8.962;2023-02-04T07:08:29;5.20;99.90
10472;DHT22;5283;48.876;8.962;2023-02-04T07:10:56;5.20;99.90
10472;DHT22;5283;48.876;8.962;2023-02-04T07:13:22;5.20;99.90
10472;DHT22;5283;48.876;8.962;2023-02-04T07:15:49;5.30;99.90
10472;DHT22;5283;48.876;8.962;2023-02-04T07:18:17;5.30;99.90
10472;DHT22;5283;48.876;8.962;2023-02-04T07:20:45;5.30;99.90
10472;DHT22;5283;48.876;8.962;2023-02-04T07:23:12;5.20;99.90
10472;DHT22;5283;48.876;8.962;2023-02-04T07:25:39;5.30;99.90
10472;DHT22;5283;48.876;8.962;2023-02-04T07:28:06;5.30;99.90
10472;DHT22;5283;48.876;8.962;2023-02-04T07:30:33;5.20;99.90
10472;DHT22;5283;48.876;8.962;2023-02-04T07:33:00;5.20;99.90
10472;DHT22;5283;48.876;8.962;2023-02-04T07:35:27;5.20;99.90
10472;DHT22;5283;48.876;8.962;2023-02-04T07:37:53;5.20;99.90
10472;DHT22;5283;48.876;8.962;2023-02-04T07:40:20;5.20;99.90
10472;DHT22;5283;48.876;8.962;2023-02-04T07:42:47;5.20;99.90
10472;DHT22;5283;48.876;8.962;2023-02-04T07:45:14;5.10;99.90
10472;DHT22;5283;48.876;8.962;2023-02-04T07:47:41;5.10;99.90
10472;DHT22;5283;48.876;8.962;2023-02-04T07:50:08;5.10;99.90
10472;DHT22;5283;48.876;8.962;2023-02-04T07:52:34;5.10;99.90
10472;DHT22;5283;48.876;8.962;2023-02-04T07:55:01;5.10;99.90
10472;DHT22;5283;48.876;8.962;2023-02-04T07:57:28;5.20;99.90
10472;DHT22;5283;48.876;8.962;2023-02-04T07:59:55;5.10;99.90
10472;DHT22;5283;48.876;8.962;2023-02-04T08:02:22;5.20;99.90
10472;DHT22;5283;48.876;8.962;2023-02-04T08:04:49;5.20;99.90
10472;DHT22;5283;48.876;8.962;2023-02-04T08:07:15;5.20;99.90
10472;DHT22;5283;48.876;8.962;2023-02-04T08:09:42;5.20;99.90
10472;DHT22;5283;48.876;8.962;2023-02-04T08:12:09;5.20;99.90
10472;DHT22;5283;48.876;8.962;2023-02-04T08:14:36;5.30;99.90
10472;DHT22;5283;48.876;8.962;2023-02-04T08:17:02;5.30;99.90
10472;DHT22;5283;48.876;8.962;2023-02-04T08:19:29;5.40;99.90
10472;DHT22;5283;48.876;8.962;2023-02-04T08:21:56;5.40;99.90
10472;DHT22;5283;48.876;8.962;2023-02-04T08:24:22;5.40;99.90
10472;DHT22;5283;48.876;8.962;2023-02-04T08:26:49;5.40;99.90
10472;DHT22;5283;48.876;8.962;2023-02-04T08:29:17;5.40;99.90
10472;DHT22;5283;48.876;8.962;2023-02-04T08:31:44;5.40;99.90
10472;DHT22;5283;48.876;8.962;2023-02-04T08:34:10;5.40;99.90
10472;DHT22;5283;48.876;8.962;2023-02-04T08:36:37;5.50;99.90
10472;DHT22;5283;48.876;8.962;2023-02-04T08:39:04;5.50;99.90
10472;DHT22;5283;48.876;8.962;2023-02-04T08:41:30;5.60;99.90
10472;DHT22;5283;48.876;8.962;2023-02-04T08:43:59;5.60;99.90
10472;DHT22;5283;48.876;8.962;2023-02-04T08:46:25;5.70;99.90
10472;DHT22;5283;48.876;8.962;2023-02-04T08:48:52;5.70;99.90
10472;DHT22;5283;48.876;8.962;2023-02-04T08:51:19;5.70;99.90
10472;DHT22;5283;48.876;8.962;2023-02-04T08:53:45;5.70;99.90
10472;DHT22;5283;48.876;8.962;2023-02-04T08:56:12;5.70;99.90
10472;DHT22;5283;48.876;8.962;2023-02-04T08:58:42;5.70;99.90
10472;DHT22;5283;48.876;8.962;2023-02-04T09:01:09;5.60;99.90
10472;DHT22;5283;48.876;8.962;2023-02-04T09:03:37;5.70;99.90
10472;DHT22;5283;48.876;8.962;2023-02-04T09:06:05;5.70;99.90
10472;DHT22;5283;48.876;8.962;2023-02-04T09:08:32;5.70;99.90
10472;DHT22;5283;48.876;8.962;2023-02-04T09:10:59;5.70;99.90
10472;DHT22;5283;48.876;8.962;2023-02-04T09:13:26;5.80;99.90
10472;DHT22;5283;48.876;8.962;2023-02-04T09:15:52;5.80;99.90
10472;DHT22;5283;48.876;8.962;2023-02-04T09:18:20;6.00;99.90
10472;DHT22;5283;48.876;8.962;2023-02-04T09:20:48;6.10;99.90
10472;DHT22;5283;48.876;8.962;2023-02-04T09:23:15;6.20;99.90
10472;DHT22;5283;48.876;8.962;2023-02-04T09:25:45;6.30;99.90
10472;DHT22;5283;48.876;8.962;2023-02-04T09:28:12;6.30;99.90
10472;DHT22;5283;48.876;8.962;2023-02-04T09:30:41;6.30;99.90
10472;DHT22;5283;48.876;8.962;2023-02-04T09:33:10;6.30;99.90
10472;DHT22;5283;48.876;8.962;2023-02-04T09:35:37;6.30;99.90
10472;DHT22;5283;48.876;8.962;2023-02-04T09:38:04;6.20;99.90
10472;DHT22;5283;48.876;8.962;2023-02-04T09:40:33;6.20;99.90
10472;DHT22;5283;48.876;8.962;2023-02-04T09:43:03;6.30;99.90
10472;DHT22;5283;48.876;8.962;2023-02-04T09:45:33;6.50;99.90
10472;DHT22;5283;48.876;8.962;2023-02-04T09:48:03;6.70;99.90
10472;DHT22;5283;48.876;8.962;2023-02-04T09:50:30;6.80;99.90
10472;DHT22;5283;48.876;8.962;2023-02-04T09:53:02;6.80;99.90
10472;DHT22;5283;48.876;8.962;2023-02-04T09:55:34;6.70;99.90
10472;DHT22;5283;48.876;8.962;2023-02-04T09:58:02;6.70;99.90
10472;DHT22;5283;48.876;8.962;2023-02-04T10:00:29;6.60;99.90
10472;DHT22;5283;48.876;8.962;2023-02-04T10:02:59;6.60;99.90
10472;DHT22;5283;48.876;8.962;2023-02-04T10:05:29;6.50;99.90
10472;DHT22;5283;48.876;8.962;2023-02-04T10:07:57;6.50;99.90
10472;DHT22;5283;48.876;8.962;2023-02-04T10:10:26;6.50;99.90
10472;DHT22;5283;48.876;8.962;2023-02-04T10:12:59;6.40;99.90
10472;DHT22;5283;48.876;8.962;2023-02-04T10:15:26;6.40;99.90
10472;DHT22;5283;48.876;8.962;2023-02-04T10:18:02;6.50;99.90
10472;DHT22;5283;48.876;8.962;2023-02-04T10:20:30;6.60;99.90
10472;DHT22;5283;48.876;8.962;2023-02-04T10:22:57;6.70;99.90
10472;DHT22;5283;48.876;8.962;2023-02-04T10:25:25;7.00;99.90
10472;DHT22;5283;48.876;8.962;2023-02-04T10:27:56;7.10;99.90
10472;DHT22;5283;48.876;8.962;2023-02-04T10:30:37;7.20;99.90
10472;DHT22;5283;48.876;8.962;2023-02-04T10:33:23;7.40;99.90
10472;DHT22;5283;48.876;8.962;2023-02-04T10:35:55;7.40;99.90
10472;DHT22;5283;48.876;8.962;2023-02-04T10:38:22;7.60;99.90
10472;DHT22;5283;48.876;8.962;2023-02-04T10:41:03;7.50;99.90
10472;DHT22;5283;48.876;8.962;2023-02-04T10:43:31;7.70;99.90
10472;DHT22;5283;48.876;8.962;2023-02-04T10:46:01;7.70;99.90
10472;DHT22;5283;48.876;8.962;2023-02-04T10:48:28;7.60;99.90
10472;DHT22;5283;48.876;8.962;2023-02-04T10:50:57;7.50;99.90
10472;DHT22;5283;48.876;8.962;2023-02-04T10:53:24;7.30;99.90
10472;DHT22;5283;48.876;8.962;2023-02-04T10:56:20;7.20;99.90
10472;DHT22;5283;48.876;8.962;2023-02-04T10:58:48;6.90;99.90
10472;DHT22;5283;48.876;8.962;2023-02-04T11:01:15;6.80;99.90
10472;DHT22;5283;48.876;8.962;2023-02-04T11:03:43;6.80;99.90
10472;DHT22;5283;48.876;8.962;2023-02-04T11:06:17;7.00;99.90
10472;DHT22;5283;48.876;8.962;2023-02-04T11:08:45;7.20;99.90
10472;DHT22;5283;48.876;8.962;2023-02-04T11:11:21;7.30;99.90
10472;DHT22;5283;48.876;8.962;2023-02-04T11:16:26;7.50;99.90
10472;DHT22;5283;48.876;8.962;2023-02-04T11:18:59;7.50;99.90
10472;DHT22;5283;48.876;8.962;2023-02-04T11:26:41;7.80;99.90
10472;DHT22;5283;48.876;8.962;2023-02-04T11:32:03;8.40;99.90
10472;DHT22;5283;48.876;8.962;2023-02-04T11:34:31;8.70;99.90
10472;DHT22;5283;48.876;8.962;2023-02-04T11:37:33;8.80;99.90
10472;DHT22;5283;48.876;8.962;2023-02-04T11:40:13;8.60;99.90
10472;DHT22;5283;48.876;8.962;2023-02-04T11:42:46;8.30;99.90
10472;DHT22;5283;48.876;8.962;2023-02-04T11:45:24;8.20;99.90
10472;DHT22;5283;48.876;8.962;2023-02-04T11:47:52;8.20;99.90
10472;DHT22;5283;48.876;8.962;2023-02-04T11:50:24;8.40;99.90
10472;DHT22;5283;48.876;8.962;2023-02-04T11:52:55;8.60;99.90
10472;DHT22;5283;48.876;8.962;2023-02-04T11:55:23;8.70;99.90
10472;DHT22;5283;48.876;8.962;2023-02-04T11:57:52;8.90;99.90
10472;DHT22;5283;48.876;8.962;2023-02-04T12:00:31;9.10;99.90
10472;DHT22;5283;48.876;8.962;2023-02-04T12:03:00;8.90;99.90
10472;DHT22;5283;48.876;8.962;2023-02-04T12:05:44;8.90;99.90
10472;DHT22;5283;48.876;8.962;2023-02-04T12:08:26;8.80;99.90
10472;DHT22;5283;48.876;8.962;2023-02-04T12:11:01;8.60;99.90
10472;DHT22;5283;48.876;8.962;2023-02-04T12:13:29;8.40;99.90
10472;DHT22;5283;48.876;8.962;2023-02-04T12:16:00;8.20;99.90
10472;DHT22;5283;48.876;8.962;2023-02-04T12:18:28;8.30;99.90
10472;DHT22;5283;48.876;8.962;2023-02-04T12:20:56;8.10;99.90
10472;DHT22;5283;48.876;8.962;2023-02-04T12:23:24;8.00;99.90
10472;DHT22;5283;48.876;8.962;2023-02-04T12:25:51;8.30;99.90
10472;DHT22;5283;48.876;8.962;2023-02-04T12:28:18;8.60;99.90
10472;DHT22;5283;48.876;8.962;2023-02-04T12:30:45;8.70;99.90
10472;DHT22;5283;48.876;8.962;2023-02-04T12:33:12;8.50;99.90
10472;DHT22;5283;48.876;8.962;2023-02-04T12:35:40;8.10;99.90
10472;DHT22;5283;48.876;8.962;2023-02-04T12:38:07;7.90;99.90
10472;DHT22;5283;48.876;8.962;2023-02-04T12:40:36;8.10;99.90
10472;DHT22;5283;48.876;8.962;2023-02-04T12:43:03;8.30;99.90
10472;DHT22;5283;48.876;8.962;2023-02-04T12:45:30;8.50;99.90
10472;DHT22;5283;48.876;8.962;2023-02-04T12:47:57;8.60;99.90
10472;DHT22;5283;48.876;8.962;2023-02-04T12:50:24;8.70;99.90
10472;DHT22;5283;48.876;8.962;2023-02-04T12:52:53;8.70;99.90
10472;DHT22;5283;48.876;8.962;2023-02-04T12:55:21;8.80;99.90
10472;DHT22;5283;48.876;8.962;2023-02-04T12:57:48;8.90;99.90
10472;DHT22;5283;48.876;8.962;2023-02-04T13:00:17;8.90;99.90
10472;DHT22;5283;48.876;8.962;2023-02-04T13:02:45;8.70;99.90
10472;DHT22;5283;48.876;8.962;2023-02-04T13:05:12;8.70;99.90
10472;DHT22;5283;48.876;8.962;2023-02-04T13:07:39;8.60;99.90
10472;DHT22;5283;48.876;8.962;2023-02-04T13:10:11;8.50;99.90
10472;DHT22;5283;48.876;8.962;2023-02-04T13:12:39;8.50;99.90
10472;DHT22;5283;48.876;8.962;2023-02-04T13:15:07;8.30;99.90
10472;DHT22;5283;48.876;8.962;2023-02-04T13:17:33;8.00;99.90
10472;DHT22;5283;48.876;8.962;2023-02-04T13:20:00;7.70;99.90
10472;DHT22;5283;48.876;8.962;2023-02-04T13:22:27;7.70;99.90
10472;DHT22;5283;48.876;8.962;2023-02-04T13:24:54;7.90;99.90
10472;DHT22;5283;48.876;8.962;2023-02-04T13:27:20;8.20;99.90
10472;DHT22;5283;48.876;8.962;2023-02-04T13:29:47;8.50;99.90
10472;DHT22;5283;48.876;8.962;2023-02-04T13:32:14;8.60;99.90
10472;DHT22;5283;48.876;8.962;2023-02-04T13:34:40;8.60;99.90
10472;DHT22;5283;48.876;8.962;2023-02-04T13:37:07;8.40;99.90
10472;DHT22;5283;48.876;8.962;2023-02-04T13:39:34;8.30;99.90
10472;DHT22;5283;48.876;8.962;2023-02-04T13:42:01;8.30;99.90
10472;DHT22;5283;48.876;8.962;2023-02-04T13:44:29;8.30;99.90
10472;DHT22;5283;48.876;8.962;2023-02-04T13:46:56;8.30;99.90
10472;DHT22;5283;48.876;8.962;2023-02-04T13:49:23;8.30;99.90
10472;DHT22;5283;48.876;8.962;2023-02-04T13:51:50;8.30;99.90
10472;DHT22;5283;48.876;8.962;2023-02-04T13:54:16;8.10;99.90
10472;DHT22;5283;48.876;8.962;2023-02-04T13:56:43;7.90;99.90
10472;DHT22;5283;48.876;8.962;2023-02-04T13:59:10;7.80;99.90
10472;DHT22;5283;48.876;8.962;2023-02-04T14:01:36;7.70;99.90
10472;DHT22;5283;48.876;8.962;2023-02-04T14:04:04;7.60;99.90
10472;DHT22;5283;48.876;8.962;2023-02-04T14:06:31;7.60;99.90
10472;DHT22;5283;48.876;8.962;2023-02-04T14:09:03;7.60;99.90
10472;DHT22;5283;48.876;8.962;2023-02-04T14:11:30;7.60;99.90
10472;DHT22;5283;48.876;8.962;2023-02-04T14:13:57;7.70;99.90
10472;DHT22;5283;48.876;8.962;2023-02-04T14:16:24;7.50;99.90
10472;DHT22;5283;48.876;8.962;2023-02-04T14:18:50;7.40;99.90
10472;DHT22;5283;48.876;8.962;2023-02-04T14:21:17;7.30;99.90
10472;DHT22;5283;48.876;8.962;2023-02-04T14:23:44;7.20;99.90
10472;DHT22;5283;48.876;8.962;2023-02-04T14:26:11;7.10;99.90
10472;DHT22;5283;48.876;8.962;2023-02-04T14:28:37;7.10;99.90
10472;DHT22;5283;48.876;8.962;2023-02-04T14:31:04;7.10;99.90
10472;DHT22;5283;48.876;8.962;2023-02-04T14:33:31;7.00;99.90
10472;DHT22;5283;48.876;8.962;2023-02-04T14:35:58;6.90;99.90
10472;DHT22;5283;48.876;8.962;2023-02-04T14:38:25;6.90;99.90
10472;DHT22;5283;48.876;8.962;2023-02-04T14:40:57;6.70;99.90
10472;DHT22;5283;48.876;8.962;2023-02-04T14:43:24;6.60;99.90
10472;DHT22;5283;48.876;8.962;2023-02-04T14:45:51;6.60;99.90
10472;DHT22;5283;48.876;8.962;2023-02-04T14:48:18;6.70;99.90
10472;DHT22;5283;48.876;8.962;2023-02-04T14:50:45;7.10;99.90
10472;DHT22;5283;48.876;8.962;2023-02-04T14:53:12;7.50;99.90
10472;DHT22;5283;48.876;8.962;2023-02-04T14:55:39;7.80;99.90
10472;DHT22;5283;48.876;8.962;2023-02-04T14:58:05;8.00;99.90
10472;DHT22;5283;48.876;8.962;2023-02-04T15:00:32;7.80;99.90
10472;DHT22;5283;48.876;8.962;2023-02-04T15:02:59;7.50;99.90
10472;DHT22;5283;48.876;8.962;2023-02-04T15:05:26;7.30;99.90
10472;DHT22;5283;48.876;8.962;2023-02-04T15:07:53;7.20;99.90
10472;DHT22;5283;48.876;8.962;2023-02-04T15:10:19;7.10;99.90
10472;DHT22;5283;48.876;8.962;2023-02-04T15:12:46;6.90;99.90
10472;DHT22;5283;48.876;8.962;2023-02-04T15:15:13;6.90;99.90
10472;DHT22;5283;48.876;8.962;2023-02-04T15:17:40;6.80;99.90
10472;DHT22;5283;48.876;8.962;2023-02-04T15:20:07;6.70;99.90
10472;DHT22;5283;48.876;8.962;2023-02-04T15:22:34;6.70;99.90
10472;DHT22;5283;48.876;8.962;2023-02-04T15:25:01;6.70;99.90
10472;DHT22;5283;48.876;8.962;2023-02-04T15:27:27;6.60;99.90
10472;DHT22;5283;48.876;8.962;2023-02-04T15:29:54;6.60;99.90
10472;DHT22;5283;48.876;8.962;2023-02-04T15:32:21;6.60;99.90
10472;DHT22;5283;48.876;8.962;2023-02-04T15:34:48;6.60;99.90
10472;DHT22;5283;48.876;8.962;2023-02-04T15:37:14;6.60;99.90
10472;DHT22;5283;48.876;8.962;2023-02-04T15:39:41;6.50;99.90
10472;DHT22;5283;48.876;8.962;2023-02-04T15:42:09;6.50;99.90
10472;DHT22;5283;48.876;8.962;2023-02-04T15:44:36;6.40;99.90
10472;DHT22;5283;48.876;8.962;2023-02-04T15:47:03;6.30;99.90
10472;DHT22;5283;48.876;8.962;2023-02-04T15:49:31;6.20;99.90
10472;DHT22;5283;48.876;8.962;2023-02-04T15:51:59;6.10;99.90
10472;DHT22;5283;48.876;8.962;2023-02-04T15:54:27;6.10;99.90
10472;DHT22;5283;48.876;8.962;2023-02-04T15:56:54;6.00;99.90
10472;DHT22;5283;48.876;8.962;2023-02-04T15:59:21;5.80;99.90
10472;DHT22;5283;48.876;8.962;2023-02-04T16:01:47;5.70;99.90
10472;DHT22;5283;48.876;8.962;2023-02-04T16:04:15;5.40;99.90
10472;DHT22;5283;48.876;8.962;2023-02-04T16:06:42;5.30;99.90
10472;DHT22;5283;48.876;8.962;2023-02-04T16:09:19;5.30;99.90
10472;DHT22;5283;48.876;8.962;2023-02-04T16:11:45;5.40;99.90
10472;DHT22;5283;48.876;8.962;2023-02-04T16:14:12;5.40;99.90
10472;DHT22;5283;48.876;8.962;2023-02-04T16:16:38;5.30;99.90